Time;durP1;ratioP1;P1;durP2;ratioP2;P2;SDS_P1;SDS_P2;PMS_P1;PMS_P2;Temp;Humidity;BMP_temperature;BMP_pressure;BME280_temperature;BME280_humidity;BME280_pressure;Samples;Min_cycle;Max_cycle;Signal;HPM_P1;HPM_P2
2021/10/11 00:03:06;;;;;;;27.48;14.27;;;;;;;;;;10353289;28;20082;-64
2021/10/11 00:08:05;;;;;;;24.25;14.25;;;;;;;;;;10353377;28;20083;-65
2021/10/11 00:13:04;;;;;;;22.25;13.23;;;;;;;;;;10354995;28;20064;-65
2021/10/11 00:18:03;;;;;;;24.52;14.27;;;;;;;;;;10354241;28;20048;-65
2021/10/11 00:23:03;;;;;;;17.23;12.75;;;;;;;;;;10340147;28;20067;-65
2021/10/11 00:28:02;;;;;;;26.73;13.88;;;;;;;;;;10351962;28;20163;-64
2021/10/11 00:33:01;;;;;;;21.75;13.63;;;;;;;;;;10350846;28;20048;-65
2021/10/11 00:38:00;;;;;;;27.27;14.00;;;;;;;;;;10351910;28;20071;-64
2021/10/11 00:42:59;;;;;;;22.60;13.77;;;;;;;;;;10350723;28;20501;-64
2021/10/11 00:47:57;;;;;;;28.13;13.77;;;;;;;;;;10350231;28;20498;-65
2021/10/11 00:52:56;;;;;;;18.65;12.98;;;;;;;;;;10353792;28;20060;-65
2021/10/11 00:57:59;;;;;;;21.52;13.68;;;;;;;;;;10351622;28;20425;-65
2021/10/11 01:02:57;;;;;;;20.77;13.02;;;;;;;;;;10349707;28;20075;-65
2021/10/11 01:07:55;;;;;;;19.65;13.90;;;;;;;;;;10349277;28;20068;-64
2021/10/11 01:12:54;;;;;;;23.40;13.18;;;;;;;;;;10349059;28;20505;-65
2021/10/11 01:17:53;;;;;;;20.75;13.43;;;;;;;;;;10349998;28;20161;-64
2021/10/11 01:22:53;;;;;;;19.65;11.60;;;;;;;;;;10335707;28;20060;-64
2021/10/11 01:27:51;;;;;;;23.35;12.13;;;;;;;;;;10347624;28;20469;-64
2021/10/11 01:32:52;;;;;;;16.65;10.60;;;;;;;;;;10348686;28;20068;-64
2021/10/11 01:37:50;;;;;;;23.65;11.75;;;;;;;;;;10337597;28;20049;-64
2021/10/11 01:42:54;;;;;;;24.23;11.15;;;;;;;;;;10337116;28;20072;-64
2021/10/11 01:47:52;;;;;;;21.48;10.40;;;;;;;;;;10346056;28;20083;-64
2021/10/11 01:52:50;;;;;;;21.38;11.30;;;;;;;;;;10341517;28;20052;-65
2021/10/11 01:57:49;;;;;;;21.95;12.10;;;;;;;;;;10346351;28;20040;-65
2021/10/11 02:02:51;;;;;;;22.92;11.63;;;;;;;;;;10350865;28;20048;-65
2021/10/11 02:07:49;;;;;;;22.70;12.00;;;;;;;;;;10349884;28;20098;-65
2021/10/11 02:12:47;;;;;;;21.55;12.10;;;;;;;;;;10348310;28;20546;-65
2021/10/11 02:17:46;;;;;;;20.88;12.18;;;;;;;;;;10350558;28;20048;-65
2021/10/11 02:22:45;;;;;;;19.38;11.90;;;;;;;;;;10335848;28;20444;-65
2021/10/11 02:27:44;;;;;;;27.17;13.05;;;;;;;;;;10350333;28;20071;-65
2021/10/11 02:32:42;;;;;;;23.13;14.93;;;;;;;;;;10346658;28;20436;-65
2021/10/11 02:37:42;;;;;;;19.70;14.02;;;;;;;;;;10340494;28;20131;-65
2021/10/11 02:42:42;;;;;;;23.83;14.48;;;;;;;;;;10349300;28;20151;-62
2021/10/11 02:47:41;;;;;;;23.77;15.10;;;;;;;;;;10346815;28;20099;-66
2021/10/11 02:52:39;;;;;;;23.60;14.98;;;;;;;;;;10349373;28;20079;-63
2021/10/11 02:57:37;;;;;;;20.15;13.75;;;;;;;;;;10348073;28;20051;-65
2021/10/11 03:02:37;;;;;;;24.50;14.98;;;;;;;;;;10347546;28;20040;-64
2021/10/11 03:07:35;;;;;;;23.20;15.00;;;;;;;;;;10345274;28;20052;-64
2021/10/11 03:12:35;;;;;;;20.25;13.23;;;;;;;;;;10337249;28;20382;-65
2021/10/11 03:17:33;;;;;;;21.73;13.10;;;;;;;;;;10335004;28;20048;-65
2021/10/11 03:22:33;;;;;;;20.17;12.32;;;;;;;;;;10347759;28;20044;-65
2021/10/11 03:27:31;;;;;;;27.38;13.13;;;;;;;;;;10355167;28;20043;-65
2021/10/11 03:32:30;;;;;;;29.52;14.50;;;;;;;;;;10342582;28;20078;-65
2021/10/11 03:37:28;;;;;;;23.33;12.60;;;;;;;;;;10356812;28;20583;-65
2021/10/11 03:42:28;;;;;;;25.42;13.65;;;;;;;;;;10338011;28;20047;-65
2021/10/11 03:47:26;;;;;;;24.02;11.73;;;;;;;;;;10338634;28;20036;-64
2021/10/11 03:52:24;;;;;;;17.33;11.60;;;;;;;;;;10338397;28;20060;-64
2021/10/11 03:57:23;;;;;;;22.48;12.57;;;;;;;;;;10351004;28;20393;-65
2021/10/11 04:02:22;;;;;;;17.85;11.95;;;;;;;;;;10352042;28;20153;-64
2021/10/11 04:07:21;;;;;;;18.90;11.63;;;;;;;;;;10350199;28;20075;-65
2021/10/11 04:12:20;;;;;;;21.58;12.25;;;;;;;;;;10350865;28;20078;-64
2021/10/11 04:17:18;;;;;;;26.98;11.95;;;;;;;;;;10348989;28;20092;-64
2021/10/11 04:22:18;;;;;;;34.28;12.30;;;;;;;;;;10336343;28;20076;-65
2021/10/11 04:27:16;;;;;;;17.65;11.15;;;;;;;;;;10313163;28;20076;-65
2021/10/11 04:32:15;;;;;;;26.10;12.18;;;;;;;;;;10322762;28;20077;-65
2021/10/11 04:37:13;;;;;;;15.80;10.40;;;;;;;;;;10346337;28;20063;-64
2021/10/11 04:42:12;;;;;;;16.48;10.80;;;;;;;;;;10318066;28;20064;-64
2021/10/11 04:47:11;;;;;;;25.48;11.73;;;;;;;;;;10328054;28;20036;-65
2021/10/11 04:52:09;;;;;;;19.45;11.23;;;;;;;;;;10350613;28;20087;-65
2021/10/11 04:57:07;;;;;;;18.27;11.75;;;;;;;;;;10353394;28;20072;-65
2021/10/11 05:02:07;;;;;;;18.38;11.40;;;;;;;;;;10350944;28;20071;-65
2021/10/11 05:07:05;;;;;;;22.10;11.75;;;;;;;;;;10340559;28;20139;-65
2021/10/11 05:12:04;;;;;;;20.60;12.98;;;;;;;;;;10339947;28;20071;-64
2021/10/11 05:17:02;;;;;;;16.58;11.55;;;;;;;;;;10352507;28;20517;-64
2021/10/11 05:22:02;;;;;;;22.50;10.73;;;;;;;;;;10325630;28;20055;-65
2021/10/11 05:27:00;;;;;;;15.45;12.20;;;;;;;;;;10351138;28;20581;-65
2021/10/11 05:31:59;;;;;;;23.30;12.10;;;;;;;;;;10353365;28;20075;-65
2021/10/11 05:36:57;;;;;;;24.35;12.85;;;;;;;;;;10338752;28;20068;-64
2021/10/11 05:41:57;;;;;;;33.17;20.45;;;;;;;;;;10350618;28;20036;-64
2021/10/11 05:46:55;;;;;;;71.75;48.25;;;;;;;;;;10331372;28;20124;-65
2021/10/11 05:51:53;;;;;;;25.17;12.43;;;;;;;;;;10329763;28;20555;-65
2021/10/11 05:56:51;;;;;;;19.27;12.13;;;;;;;;;;10342860;28;20079;-64
2021/10/11 06:01:51;;;;;;;20.95;13.25;;;;;;;;;;10325007;28;20130;-66
2021/10/11 06:06:49;;;;;;;16.83;12.82;;;;;;;;;;10352821;28;20076;-66
2021/10/11 06:11:48;;;;;;;19.33;13.32;;;;;;;;;;10345755;28;20086;-65
2021/10/11 06:16:47;;;;;;;20.52;11.32;;;;;;;;;;10331763;28;20075;-65
2021/10/11 06:21:47;;;;;;;20.63;13.40;;;;;;;;;;10331449;28;20468;-65
2021/10/11 06:26:45;;;;;;;21.77;13.32;;;;;;;;;;10348092;28;20165;-65
2021/10/11 06:31:43;;;;;;;22.70;12.95;;;;;;;;;;10345278;28;20505;-66
2021/10/11 06:36:42;;;;;;;32.65;23.80;;;;;;;;;;10354635;28;20413;-66
2021/10/11 06:41:41;;;;;;;20.70;13.50;;;;;;;;;;10354215;28;20079;-66
2021/10/11 06:46:40;;;;;;;17.58;12.23;;;;;;;;;;10354791;28;20071;-66
2021/10/11 06:51:38;;;;;;;25.50;13.80;;;;;;;;;;10362609;28;20076;-65
2021/10/11 06:56:36;;;;;;;20.33;13.00;;;;;;;;;;10362511;28;20068;-65
2021/10/11 07:01:36;;;;;;;22.05;13.43;;;;;;;;;;10353860;28;20066;-65
2021/10/11 07:06:36;;;;;;;20.52;12.00;;;;;;;;;;10361525;28;20040;-66
2021/10/11 07:11:34;;;;;;;21.42;12.75;;;;;;;;;;10361624;28;20466;-66
2021/10/11 07:16:33;;;;;;;20.23;12.63;;;;;;;;;;10361707;28;20060;-65
2021/10/11 07:21:32;;;;;;;17.50;10.75;;;;;;;;;;10347275;28;20493;-66
2021/10/11 07:26:31;;;;;;;16.60;12.40;;;;;;;;;;10359621;28;20047;-65
2021/10/11 07:31:29;;;;;;;21.92;12.60;;;;;;;;;;10359177;28;20087;-65
2021/10/11 07:36:27;;;;;;;26.00;14.80;;;;;;;;;;10360964;28;20098;-65
2021/10/11 07:41:27;;;;;;;19.25;11.27;;;;;;;;;;10360580;28;20489;-65
2021/10/11 07:46:26;;;;;;;19.27;11.80;;;;;;;;;;10359810;28;20501;-65
2021/10/11 07:51:24;;;;;;;19.00;11.73;;;;;;;;;;10360303;28;20059;-65
2021/10/11 07:56:22;;;;;;;16.83;12.07;;;;;;;;;;10360039;28;20063;-65
2021/10/11 08:01:22;;;;;;;26.63;11.68;;;;;;;;;;10359674;28;20083;-65
2021/10/11 08:06:21;;;;;;;19.40;12.55;;;;;;;;;;10359435;28;20044;-65
2021/10/11 08:11:19;;;;;;;23.83;14.88;;;;;;;;;;10358796;28;20509;-65
2021/10/11 08:16:18;;;;;;;36.40;23.92;;;;;;;;;;10359565;28;20075;-66
2021/10/11 08:21:17;;;;;;;19.58;13.23;;;;;;;;;;10329695;28;20075;-65
2021/10/11 08:26:16;;;;;;;27.98;16.48;;;;;;;;;;10358984;28;20071;-66
2021/10/11 08:31:14;;;;;;;34.90;24.67;;;;;;;;;;10358440;28;20433;-66
2021/10/11 08:36:13;;;;;;;26.80;13.50;;;;;;;;;;10357738;28;20075;-65
2021/10/11 08:41:14;;;;;;;26.92;15.38;;;;;;;;;;10358456;28;20051;-65
2021/10/11 08:46:13;;;;;;;17.77;14.30;;;;;;;;;;10357657;28;20508;-65
2021/10/11 08:51:11;;;;;;;23.08;14.00;;;;;;;;;;10355214;28;20059;-65
2021/10/11 08:56:13;;;;;;;25.10;13.20;;;;;;;;;;10346499;28;20062;-66
2021/10/11 09:01:12;;;;;;;24.48;13.77;;;;;;;;;;10355946;28;20040;-64
2021/10/11 09:06:12;;;;;;;20.13;13.75;;;;;;;;;;10357655;28;20150;-65
2021/10/11 09:11:11;;;;;;;20.55;13.80;;;;;;;;;;10355165;28;20074;-65
2021/10/11 09:16:11;;;;;;;26.27;15.20;;;;;;;;;;10357115;28;20067;-65
2021/10/11 09:21:11;;;;;;;25.27;16.63;;;;;;;;;;10342613;28;20072;-65
2021/10/11 09:26:19;;;;;;;38.00;17.13;;;;;;;;;;10356055;28;20074;-64
2021/10/11 09:31:18;;;;;;;22.48;14.80;;;;;;;;;;10356561;28;20086;-65
2021/10/11 09:36:21;;;;;;;39.00;25.25;;;;;;;;;;10355523;28;20428;-65
2021/10/11 09:41:20;;;;;;;30.70;18.83;;;;;;;;;;10356131;28;20071;-65
2021/10/11 09:46:19;;;;;;;37.08;23.08;;;;;;;;;;10356166;28;20516;-66
2021/10/11 09:51:20;;;;;;;24.10;14.73;;;;;;;;;;10355863;28;20071;-65
2021/10/11 09:56:20;;;;;;;21.38;13.13;;;;;;;;;;10355856;28;20048;-65
2021/10/11 10:01:19;;;;;;;29.33;14.63;;;;;;;;;;10355134;28;20070;-65
2021/10/11 10:06:18;;;;;;;24.45;15.23;;;;;;;;;;10354421;28;20071;-65
2021/10/11 10:11:17;;;;;;;24.65;13.05;;;;;;;;;;10354631;28;20079;-65
2021/10/11 10:16:18;;;;;;;25.55;13.73;;;;;;;;;;10354779;28;20079;-65
2021/10/11 10:21:17;;;;;;;24.75;17.83;;;;;;;;;;10343637;28;20535;-66
2021/10/11 10:26:26;;;;;;;20.63;13.63;;;;;;;;;;10363592;28;20079;-66
2021/10/11 10:31:29;;;;;;;16.48;13.48;;;;;;;;;;10362678;28;20445;-65
2021/10/11 10:36:29;;;;;;;22.50;15.90;;;;;;;;;;10363200;28;20071;-64
2021/10/11 10:41:27;;;;;;;21.75;16.40;;;;;;;;;;10347643;28;20071;-65
2021/10/11 10:46:25;;;;;;;28.58;18.25;;;;;;;;;;10363302;28;20078;-64
2021/10/11 10:51:25;;;;;;;37.20;25.55;;;;;;;;;;10358429;28;20457;-65
2021/10/11 10:56:24;;;;;;;27.95;15.45;;;;;;;;;;10355933;28;20457;-65
2021/10/11 11:01:25;;;;;;;32.28;24.05;;;;;;;;;;10343889;28;20063;-65
2021/10/11 11:06:30;;;;;;;25.52;17.45;;;;;;;;;;10360196;28;20433;-66
2021/10/11 11:11:29;;;;;;;22.02;15.73;;;;;;;;;;10361144;28;20076;-65
2021/10/11 11:16:28;;;;;;;29.95;17.48;;;;;;;;;;10360499;28;20425;-65
2021/10/11 11:21:27;;;;;;;23.45;16.60;;;;;;;;;;10360075;28;20071;-65
2021/10/11 11:26:27;;;;;;;25.63;18.35;;;;;;;;;;10360811;28;20070;-64
2021/10/11 11:31:25;;;;;;;20.98;15.02;;;;;;;;;;10359953;28;20079;-64
2021/10/11 11:36:24;;;;;;;24.15;14.23;;;;;;;;;;10360816;28;20072;-64
2021/10/11 11:41:22;;;;;;;16.80;14.63;;;;;;;;;;10359036;28;20071;-64
2021/10/11 11:46:22;;;;;;;26.77;17.27;;;;;;;;;;10360592;28;20476;-64
2021/10/11 11:51:20;;;;;;;21.77;16.42;;;;;;;;;;10360224;28;20072;-64
2021/10/11 11:56:19;;;;;;;24.45;21.30;;;;;;;;;;10359585;28;20460;-64
2021/10/11 12:01:19;;;;;;;21.95;12.80;;;;;;;;;;10360326;28;20078;-63
2021/10/11 12:06:19;;;;;;;18.15;13.30;;;;;;;;;;10359134;28;20476;-63
2021/10/11 12:11:19;;;;;;;23.52;14.00;;;;;;;;;;10346371;28;20086;-63
2021/10/11 12:16:19;;;;;;;24.05;13.32;;;;;;;;;;10359550;28;20096;-63
2021/10/11 12:21:23;;;;;;;22.25;13.73;;;;;;;;;;10344646;28;20071;-63
2021/10/11 12:26:22;;;;;;;17.02;14.00;;;;;;;;;;10358920;28;20044;-63
2021/10/11 12:31:21;;;;;;;21.75;14.07;;;;;;;;;;10351509;28;20076;-64
2021/10/11 12:36:20;;;;;;;21.60;14.32;;;;;;;;;;10350947;28;20174;-64
2021/10/11 12:41:20;;;;;;;19.40;13.52;;;;;;;;;;10358504;28;20075;-64
2021/10/11 12:46:18;;;;;;;30.60;17.85;;;;;;;;;;10356379;28;20055;-64
2021/10/11 12:51:23;;;;;;;25.98;19.08;;;;;;;;;;10354825;28;20064;-64
2021/10/11 12:56:24;;;;;;;41.05;29.27;;;;;;;;;;10348134;28;20497;-64
2021/10/11 13:01:22;;;;;;;33.97;22.83;;;;;;;;;;10356439;28;20083;-64
2021/10/11 13:06:21;;;;;;;31.45;18.77;;;;;;;;;;10355948;28;20083;-63
2021/10/11 13:11:20;;;;;;;21.98;18.15;;;;;;;;;;10342191;28;20472;-64
2021/10/11 13:16:19;;;;;;;26.65;16.65;;;;;;;;;;10355848;28;20063;-63
2021/10/11 13:21:18;;;;;;;21.40;17.17;;;;;;;;;;10344472;28;20319;-64
2021/10/11 13:26:17;;;;;;;29.48;19.13;;;;;;;;;;10342364;28;20043;-63
2021/10/11 14:29:48;;;;;;;;;;;;;;;;;;10296522;28;20064;-64
2021/10/11 15:51:45;;;;;;;24.48;19.92;;;;;;;;;;10291342;28;19960;-64
2021/10/11 15:54:45;;;;;;;;;;;;;;;;;;10277377;28;20079;-64
2021/10/11 15:59:46;;;;;;;22.30;18.75;;;;;;;;;;10265349;28;19960;-64
2021/10/11 16:04:44;;;;;;;29.73;24.08;;;;;;;;;;10259166;28;20053;-64
2021/10/11 16:09:43;;;;;;;23.55;19.55;;;;;;;;;;10275386;28;20065;-64
2021/10/11 16:14:41;;;;;;;24.08;18.38;;;;;;;;;;10276150;28;20076;-64
2021/10/11 16:20:03;;;;;;;28.20;21.38;;;;;;;;;;10265059;28;20091;-64
2021/10/11 16:25:01;;;;;;;23.50;19.02;;;;;;;;;;10275758;28;20068;-64
2021/10/11 16:29:59;;;;;;;33.35;24.45;;;;;;;;;;10275751;28;20117;-64
2021/10/11 16:34:58;;;;;;;26.98;21.35;;;;;;;;;;10275101;28;20478;-64
2021/10/11 16:39:58;;;;;;;24.63;19.92;;;;;;;;;;10273581;28;20080;-63
2021/10/11 16:44:56;;;;;;;45.58;32.90;;;;;;;;;;10291483;28;20079;-63
2021/10/11 16:49:54;;;;;;;41.83;35.50;;;;;;;;;;10285661;28;20083;-64
2021/10/11 16:54:53;;;;;;;32.05;28.13;;;;;;;;;;10272444;28;20072;-64
2021/10/11 16:59:53;;;;;;;49.65;41.05;;;;;;;;;;10274026;28;20072;-64
2021/10/11 17:04:51;;;;;;;32.45;26.23;;;;;;;;;;10273306;28;20361;-64
2021/10/11 17:09:50;;;;;;;28.63;23.88;;;;;;;;;;10270281;28;20061;-64
2021/10/11 17:14:48;;;;;;;28.33;20.88;;;;;;;;;;10272615;28;20067;-64
2021/10/11 17:19:48;;;;;;;36.85;32.88;;;;;;;;;;10272984;28;20076;-63
2021/10/11 17:24:48;;;;;;;33.83;25.42;;;;;;;;;;10273047;28;20517;-63
2021/10/11 17:29:46;;;;;;;31.92;23.88;;;;;;;;;;10272745;28;20084;-64
2021/10/11 17:34:44;;;;;;;24.90;22.05;;;;;;;;;;10273979;28;20501;-63
2021/10/11 17:39:45;;;;;;;28.08;20.40;;;;;;;;;;10271773;28;20115;-63
2021/10/11 17:44:43;;;;;;;31.70;24.02;;;;;;;;;;10272354;28;20072;-63
2021/10/11 17:49:45;;;;;;;21.38;18.73;;;;;;;;;;10260832;28;20072;-62
2021/10/11 17:54:45;;;;;;;49.33;31.13;;;;;;;;;;10271551;28;20073;-63
2021/10/11 17:59:43;;;;;;;25.17;21.15;;;;;;;;;;10268443;28;20190;-63
2021/10/11 18:04:42;;;;;;;34.67;27.08;;;;;;;;;;10267159;28;20071;-64
2021/10/11 18:09:40;;;;;;;29.27;22.02;;;;;;;;;;10271388;28;20076;-64
2021/10/11 18:14:40;;;;;;;29.60;24.08;;;;;;;;;;10271906;28;20068;-63
2021/10/11 18:19:38;;;;;;;31.48;21.58;;;;;;;;;;10269711;28;20088;-63
2021/10/11 18:24:37;;;;;;;22.98;18.17;;;;;;;;;;10271241;28;20290;-63
2021/10/11 18:29:35;;;;;;;29.60;21.17;;;;;;;;;;10281972;28;20505;-63
2021/10/11 18:34:35;;;;;;;24.17;19.38;;;;;;;;;;10279679;28;20064;-63
2021/10/11 18:39:34;;;;;;;19.67;14.65;;;;;;;;;;10278702;28;20095;-63
2021/10/11 18:44:33;;;;;;;38.88;25.95;;;;;;;;;;10273395;28;20076;-63
2021/10/11 18:49:31;;;;;;;22.25;17.25;;;;;;;;;;10278748;28;20075;-64
2021/10/11 18:54:31;;;;;;;20.83;15.27;;;;;;;;;;10279343;28;20037;-64
2021/10/11 18:59:29;;;;;;;22.13;14.63;;;;;;;;;;10278233;28;20079;-63
2021/10/11 19:04:28;;;;;;;22.42;14.95;;;;;;;;;;10277720;28;20064;-63
2021/10/11 19:09:26;;;;;;;25.23;16.92;;;;;;;;;;10278919;28;20521;-62
2021/10/11 19:14:27;;;;;;;21.40;15.30;;;;;;;;;;10278080;28;20072;-62
2021/10/11 19:19:25;;;;;;;26.50;17.42;;;;;;;;;;10279388;28;20084;-64
2021/10/11 19:24:24;;;;;;;16.80;14.43;;;;;;;;;;10259039;28;20073;-63
2021/10/11 19:29:22;;;;;;;17.08;12.95;;;;;;;;;;10278868;28;20053;-63
2021/10/11 19:34:22;;;;;;;24.30;15.35;;;;;;;;;;10272662;28;20106;-63
2021/10/11 19:39:23;;;;;;;23.55;16.63;;;;;;;;;;10288140;28;20072;-63
2021/10/11 19:44:21;;;;;;;26.70;17.48;;;;;;;;;;10283423;28;20072;-64
2021/10/11 19:49:20;;;;;;;21.40;15.43;;;;;;;;;;10273142;28;20403;-63
2021/10/11 19:54:20;;;;;;;21.27;14.55;;;;;;;;;;10278309;28;20064;-63
2021/10/11 19:59:19;;;;;;;29.55;16.05;;;;;;;;;;10277134;28;20068;-64
2021/10/11 20:04:19;;;;;;;30.60;18.38;;;;;;;;;;10280356;28;20065;-64
2021/10/11 20:09:17;;;;;;;32.45;20.75;;;;;;;;;;10273940;28;20065;-63
2021/10/11 20:14:19;;;;;;;19.60;14.65;;;;;;;;;;10276830;28;20426;-63
2021/10/11 20:19:17;;;;;;;26.13;18.75;;;;;;;;;;10277435;28;20065;-63
2021/10/11 20:24:16;;;;;;;24.63;16.15;;;;;;;;;;10265433;28;20068;-64
2021/10/11 20:29:14;;;;;;;28.02;19.88;;;;;;;;;;10276548;28;20068;-64
2021/10/11 20:34:14;;;;;;;15.32;12.55;;;;;;;;;;10290900;28;20040;-64
2021/10/11 20:39:16;;;;;;;19.88;13.13;;;;;;;;;;10272513;28;20510;-63
2021/10/11 20:44:15;;;;;;;21.83;14.27;;;;;;;;;;10263454;28;20544;-63
2021/10/11 20:49:14;;;;;;;24.80;16.20;;;;;;;;;;10289542;28;20072;-64
2021/10/11 20:54:13;;;;;;;22.75;15.18;;;;;;;;;;10274937;28;20075;-62
2021/10/11 20:59:12;;;;;;;25.90;16.95;;;;;;;;;;10262119;28;20091;-63
2021/10/11 21:04:10;;;;;;;17.40;12.80;;;;;;;;;;10269362;28;20544;-64
2021/10/11 21:09:10;;;;;;;15.82;11.25;;;;;;;;;;10269133;28;20061;-64
2021/10/11 21:14:08;;;;;;;19.27;13.25;;;;;;;;;;10275328;28;20051;-63
2021/10/11 21:19:07;;;;;;;17.23;13.27;;;;;;;;;;10274640;28;20068;-63
2021/10/11 21:24:06;;;;;;;17.08;13.50;;;;;;;;;;10274754;28;20427;-63
2021/10/11 21:29:06;;;;;;;17.08;12.27;;;;;;;;;;10274753;28;20084;-63
2021/10/11 21:34:05;;;;;;;22.27;16.48;;;;;;;;;;10275081;28;20043;-63
2021/10/11 21:39:04;;;;;;;16.35;12.43;;;;;;;;;;10274137;28;20048;-64
2021/10/11 21:44:03;;;;;;;16.95;12.00;;;;;;;;;;10260329;28;20521;-64
2021/10/11 21:49:03;;;;;;;12.25;10.48;;;;;;;;;;10258910;28;20056;-64
2021/10/11 21:54:01;;;;;;;13.35;11.77;;;;;;;;;;10260691;28;20445;-63
2021/10/11 21:58:59;;;;;;;13.57;11.57;;;;;;;;;;10267831;28;20049;-64
2021/10/11 22:03:58;;;;;;;15.75;12.98;;;;;;;;;;10276284;28;20085;-64
2021/10/11 22:08:57;;;;;;;11.40;9.73;;;;;;;;;;10269925;28;20532;-64
2021/10/11 22:13:56;;;;;;;10.75;9.65;;;;;;;;;;10269525;28;20052;-64
2021/10/11 22:18:54;;;;;;;10.90;9.75;;;;;;;;;;10267980;28;20098;-64
2021/10/11 22:23:53;;;;;;;10.70;9.50;;;;;;;;;;10281702;28;20077;-63
2021/10/11 22:28:53;;;;;;;9.88;8.50;;;;;;;;;;10281502;28;20073;-64
2021/10/11 22:33:51;;;;;;;9.77;8.80;;;;;;;;;;10271059;28;20443;-63
2021/10/11 22:38:50;;;;;;;10.52;9.40;;;;;;;;;;10274857;28;20775;-64
2021/10/11 22:43:48;;;;;;;13.10;9.55;;;;;;;;;;10274311;28;20069;-63
2021/10/11 22:48:48;;;;;;;10.68;9.57;;;;;;;;;;10273947;28;20069;-63
2021/10/11 22:53:47;;;;;;;9.18;8.25;;;;;;;;;;10280922;28;20080;-63
2021/10/11 22:58:45;;;;;;;8.80;7.90;;;;;;;;;;10280865;28;20076;-64
2021/10/11 23:03:44;;;;;;;9.57;8.60;;;;;;;;;;10280324;28;20556;-64
2021/10/11 23:08:45;;;;;;;9.80;8.65;;;;;;;;;;10280216;28;20045;-63
2021/10/11 23:13:44;;;;;;;12.25;8.52;;;;;;;;;;10279480;28;20064;-63
2021/10/11 23:18:42;;;;;;;9.25;8.35;;;;;;;;;;10270662;28;20076;-64
2021/10/11 23:23:40;;;;;;;11.88;10.77;;;;;;;;;;10267639;28;20092;-63
2021/10/11 23:28:40;;;;;;;10.57;9.63;;;;;;;;;;10279175;28;20064;-63
2021/10/11 23:33:38;;;;;;;11.70;10.00;;;;;;;;;;10279304;28;20077;-63
2021/10/11 23:38:36;;;;;;;10.20;9.30;;;;;;;;;;10279150;28;20080;-63
2021/10/11 23:43:36;;;;;;;9.82;8.85;;;;;;;;;;10278598;28;20068;-63
2021/10/11 23:48:36;;;;;;;10.10;9.10;;;;;;;;;;10278647;28;20033;-64
2021/10/11 23:53:35;;;;;;;13.10;9.40;;;;;;;;;;10278546;28;20069;-64
2021/10/11 23:58:34;;;;;;;10.02;9.02;;;;;;;;;;10264184;28;20076;-64
